KDVN

Davenport Municipal Airport

Davenport, Iowa, USA
METAR KDVN 231952Z AUTO 01004KT 10SM CLR 13/M03 A3034 RMK AO2 SLP273 T01331033
Observed Flight Rules
Oct-23 @ 19:52 UTC (40 minutes ago) Visual Flight Rules
Wind Visibility Clouds
10° at 4 knots 10 miles
  • Clear skies
Temperatures Readings
Current 13°C / 55°F
Dewpoint -3°C / 27°F
Humidity 33%
Altimeter 30.34" Hg
Pressure 1027.3 hPa
Elevation 230
METAR KDVN 231952Z AUTO 01004KT 10SM CLR 13/M03 A3034 RMK AO2 SLP273 T01331033
Observed Flight Rules
Oct-23 @ 19:52 UTC
(40 minutes ago)
VFR
Wind Visibility
10° at 4 knots 10 miles
Clouds
  • Clear skies
Temperature Dewpoint
13°C / 55°F -3°C / 27°F
Humidity Altimeter Pressure
33% 30.34" Hg 1027.3 hPa